Radiance Of The Seas — C6SE7 — position and weather

sailwx.info

Track history (hours):
 
Tides and Currents Weather Stations Pressure Air Temp Water Temp Dewpoint Dewpoint Depression Visibility Wind Speed Wind Dir Waves Ship Positions

Radiance Of The Seas

Operator: Royal Caribbean Cruises Ltd

Last reported at 2020-Mar-22 19:58 UTC. Time now 2020-Apr-02 04:26 UTC.
Position S 34°02' E 151°50'.
Warning: this ship's position is 10 days out of date.

Type: Passenger vessel. MMSI: 311319000.

Date/timePositionNaut miles runAvg speedWind from/ knotsBaromVisibWave heightAir tempDewpointWater temp
2020-Mar-22 19:58S 34°02' E 151°50'3 7.1
2020-Mar-22 19:30S 33°59' E 151°51'7 7.2
2020-Mar-22 18:30S 33°54' E 151°57'94 7.5
2020-Mar-22 06:00S 32°43' E 153°11'22 0.7
2020-Mar-20 21:29S 32°43' E 152°45'6 5.7
2020-Mar-20 20:31S 32°46' E 152°40'0 5.9
2020-Mar-20 20:30S 32°46' E 152°40'6 6.0
2020-Mar-20 19:30S 32°50' E 152°34'3 6.3
2020-Mar-20 19:00S 32°52' E 152°31'14 7.2
2020-Mar-20 17:00S 33°01' E 152°18'8 7.6
2020-Mar-20 16:00S 33°05' E 152°10'11 7.1
2020-Mar-20 14:24S 33°12' E 151°60'10 7.0
2020-Mar-20 13:00S 33°21' E 151°54'14 7.0
2020-Mar-20 10:55S 33°35' E 151°49'14 6.7
2020-Mar-20 08:52S 33°48' E 151°44'2 6.2
2020-Mar-20 08:30S 33°50' E 151°43'15 5.9
2020-Mar-20 05:59S 34°04' E 151°37'  
2020-Mar-15 16:00S 34°24' E 151°00'28 4.4 220 / 231024.9 18.0 21.0
2020-Mar-15 09:39S 34°17' E 151°33'6 9.9
2020-Mar-15 09:00S 34°11' E 151°33'25 1.9
2020-Mar-14 19:49S 33°51' E 151°14'0 0.0
2020-Mar-14 17:29S 33°51' E 151°14'1 0.9
2020-Mar-14 15:54S 33°52' E 151°13'0 0.0
2020-Mar-14 13:36S 33°52' E 151°13'0 0.0
2020-Mar-14 10:24S 33°52' E 151°13'0 0.0
2020-Mar-14 08:51S 33°52' E 151°13'2 0.1
2020-Mar-13 18:59S 33°51' E 151°15'5 9.9
2020-Mar-13 18:30S 33°50' E 151°20'815.7
2020-Mar-13 18:00S 33°53' E 151°29'7915.8
2020-Mar-13 13:00S 34°18' E 153°00'   020 / 271015.9 22.0 24.0
Track history (hours):
 
Tides and Currents Weather Stations Pressure Air Temp Water Temp Dewpoint Dewpoint Depression Visibility Wind Speed Wind Dir Waves Ship Positions

Radiance Of The Seas

Operator: Royal Caribbean Cruises Ltd

Last reported at 2020-Mar-22 19:58 UTC. Time now 2020-Apr-02 04:26 UTC.
Position S 34°02' E 151°50'.
Warning: this ship's position is 10 days out of date.

Type: Passenger vessel. MMSI: 311319000.

Date/timePositionNaut miles runAvg speedWind from/ knotsBaromVisibWave heightAir tempDewpointWater temp
2020-Mar-22 19:58S 34°02' E 151°50'3 7.1
2020-Mar-22 19:30S 33°59' E 151°51'7 7.2
2020-Mar-22 18:30S 33°54' E 151°57'94 7.5
2020-Mar-22 06:00S 32°43' E 153°11'22 0.7
2020-Mar-20 21:29S 32°43' E 152°45'6 5.7
2020-Mar-20 20:31S 32°46' E 152°40'0 5.9
2020-Mar-20 20:30S 32°46' E 152°40'6 6.0
2020-Mar-20 19:30S 32°50' E 152°34'3 6.3
2020-Mar-20 19:00S 32°52' E 152°31'14 7.2
2020-Mar-20 17:00S 33°01' E 152°18'8 7.6
2020-Mar-20 16:00S 33°05' E 152°10'11 7.1
2020-Mar-20 14:24S 33°12' E 151°60'10 7.0
2020-Mar-20 13:00S 33°21' E 151°54'14 7.0
2020-Mar-20 10:55S 33°35' E 151°49'14 6.7
2020-Mar-20 08:52S 33°48' E 151°44'2 6.2
2020-Mar-20 08:30S 33°50' E 151°43'15 5.9
2020-Mar-20 05:59S 34°04' E 151°37'  
2020-Mar-15 16:00S 34°24' E 151°00'28 4.4 220 / 231024.9 18.0 21.0
2020-Mar-15 09:39S 34°17' E 151°33'6 9.9
2020-Mar-15 09:00S 34°11' E 151°33'25 1.9
2020-Mar-14 19:49S 33°51' E 151°14'0 0.0
2020-Mar-14 17:29S 33°51' E 151°14'1 0.9
2020-Mar-14 15:54S 33°52' E 151°13'0 0.0
2020-Mar-14 13:36S 33°52' E 151°13'0 0.0
2020-Mar-14 10:24S 33°52' E 151°13'0 0.0
2020-Mar-14 08:51S 33°52' E 151°13'2 0.1
2020-Mar-13 18:59S 33°51' E 151°15'5 9.9
2020-Mar-13 18:30S 33°50' E 151°20'815.7
2020-Mar-13 18:00S 33°53' E 151°29'7915.8
2020-Mar-13 13:00S 34°18' E 153°00'   020 / 271015.9 22.0 24.0

Dump ship's entire track history